createdAt,value
2022-11-10T00:00:36.869Z,6.47
2022-11-10T00:03:22.283Z,5.50
2022-11-10T00:06:08.439Z,5.72
2022-11-10T00:08:53.857Z,5.70
2022-11-10T00:11:39.859Z,6.80
2022-11-10T00:14:43.289Z,5.53
2022-11-10T00:17:28.688Z,6.30
2022-11-10T00:20:13.827Z,6.32
2022-11-10T00:22:59.260Z,5.93
2022-11-10T00:25:44.442Z,5.60
2022-11-10T00:28:31.383Z,6.30
2022-11-10T00:31:16.503Z,5.78
2022-11-10T00:34:01.957Z,5.40
2022-11-10T00:36:47.168Z,6.55
2022-11-10T00:39:32.733Z,5.90
2022-11-10T00:42:17.799Z,5.57
2022-11-10T00:45:03.210Z,5.55
2022-11-10T00:47:48.644Z,5.45
2022-11-10T00:50:33.857Z,6.38
2022-11-10T00:53:19.807Z,6.75
2022-11-10T00:56:05.284Z,6.60
2022-11-10T00:58:50.648Z,6.00
2022-11-10T01:01:35.795Z,5.72
2022-11-10T01:04:20.941Z,6.07
2022-11-10T01:07:06.358Z,6.30
2022-11-10T01:09:51.590Z,5.47
2022-11-10T01:12:36.994Z,5.47
2022-11-10T01:15:27.300Z,5.32
2022-11-10T01:18:13.945Z,5.50
2022-11-10T01:20:59.202Z,6.13
2022-11-10T01:23:44.774Z,5.25
2022-11-10T01:26:30.213Z,4.97
2022-11-10T01:29:15.705Z,5.40
2022-11-10T01:32:01.102Z,5.45
2022-11-10T01:34:46.787Z,5.63
2022-11-10T01:37:31.904Z,4.80
2022-11-10T01:40:17.281Z,5.07
2022-11-10T01:43:02.625Z,4.70
2022-11-10T01:45:50.517Z,4.13
2022-11-10T01:48:41.573Z,4.22
2022-11-10T01:51:35.449Z,4.30
2022-11-10T01:54:23.877Z,4.40
2022-11-10T01:57:11.259Z,4.68
2022-11-10T01:59:56.917Z,3.90
2022-11-10T02:02:57.953Z,3.45
2022-11-10T02:05:43.711Z,3.80
2022-11-10T02:08:30.428Z,3.85
2022-11-10T02:11:16.206Z,4.15
2022-11-10T02:14:01.709Z,3.83
2022-11-10T02:16:46.888Z,4.28
2022-11-10T02:19:39.191Z,4.47
2022-11-10T02:22:24.427Z,4.60
2022-11-10T02:25:09.927Z,4.47
2022-11-10T02:27:54.994Z,4.18
2022-11-10T02:30:40.564Z,4.68
2022-11-10T02:33:25.956Z,4.40
2022-11-10T02:36:11.386Z,4.63
2022-11-10T02:38:56.775Z,4.53
2022-11-10T02:41:42.122Z,3.92
2022-11-10T02:44:27.681Z,4.82
2022-11-10T02:47:12.755Z,4.53
2022-11-10T02:49:58.242Z,4.57
2022-11-10T02:52:43.524Z,4.90
2022-11-10T02:55:28.936Z,5.03
2022-11-10T02:58:14.033Z,4.95
2022-11-10T03:00:59.536Z,5.00
2022-11-10T03:03:45.248Z,4.60
2022-11-10T03:06:30.687Z,5.30
2022-11-10T03:09:16.298Z,4.75
2022-11-10T03:12:01.334Z,4.55
2022-11-10T03:14:46.854Z,4.63
2022-11-10T03:17:32.051Z,4.55
2022-11-10T03:20:17.834Z,4.32
2022-11-10T03:23:04.485Z,4.47
2022-11-10T03:25:49.654Z,4.20
2022-11-10T03:28:35.164Z,4.70
2022-11-10T03:31:20.603Z,4.53
2022-11-10T03:34:05.883Z,4.70
2022-11-10T03:36:51.351Z,4.30
2022-11-10T03:39:36.667Z,4.57
2022-11-10T03:42:22.173Z,4.45
2022-11-10T03:45:07.621Z,4.55
2022-11-10T03:47:52.812Z,4.68
2022-11-10T03:50:38.016Z,4.95
2022-11-10T03:53:23.567Z,5.20
2022-11-10T03:56:09.144Z,5.38
2022-11-10T03:58:54.501Z,4.28
2022-11-10T04:01:39.970Z,4.57
2022-11-10T04:04:43.884Z,5.28
2022-11-10T04:07:47.734Z,4.25
2022-11-10T04:10:35.473Z,4.78
2022-11-10T04:13:38.905Z,5.63
2022-11-10T04:16:24.404Z,4.80
2022-11-10T04:19:09.480Z,4.68
2022-11-10T04:21:54.947Z,5.25
2022-11-10T04:24:39.989Z,4.65
2022-11-10T04:27:25.491Z,4.57
2022-11-10T04:30:11.105Z,4.95
2022-11-10T04:32:56.390Z,5.05
2022-11-10T04:35:42.665Z,5.53
2022-11-10T04:38:27.963Z,5.63
2022-11-10T04:41:13.647Z,5.35
2022-11-10T04:43:59.626Z,5.20
2022-11-10T04:46:44.665Z,5.20
2022-11-10T04:49:29.981Z,5.22
2022-11-10T04:52:15.381Z,5.18
2022-11-10T04:55:00.832Z,5.50
2022-11-10T04:57:45.863Z,5.30
2022-11-10T05:00:31.727Z,5.93
2022-11-10T05:03:17.118Z,5.95
2022-11-10T05:06:02.186Z,5.78
2022-11-10T05:08:47.820Z,5.60
2022-11-10T05:11:32.982Z,6.03
2022-11-10T05:14:18.313Z,5.47
2022-11-10T05:17:03.786Z,5.38
2022-11-10T05:19:49.092Z,5.72
2022-11-10T05:22:34.212Z,5.43
2022-11-10T05:25:19.673Z,5.20
2022-11-10T05:28:05.923Z,5.70
2022-11-10T05:30:51.153Z,5.03
2022-11-10T05:33:36.861Z,4.88
2022-11-10T05:36:22.476Z,5.05
2022-11-10T05:39:07.543Z,4.97
2022-11-10T05:41:53.011Z,4.78
2022-11-10T05:44:38.101Z,4.45
2022-11-10T05:47:23.283Z,5.10
2022-11-10T05:50:09.217Z,5.25
2022-11-10T05:52:55.425Z,5.28
2022-11-10T05:55:40.833Z,5.18
2022-11-10T05:58:26.148Z,4.85
2022-11-10T06:01:11.366Z,5.35
2022-11-10T06:03:57.070Z,5.38
2022-11-10T06:06:42.405Z,5.75
2022-11-10T06:09:28.215Z,5.50
2022-11-10T06:12:13.529Z,5.45
2022-11-10T06:14:59.150Z,5.68
2022-11-10T06:17:45.293Z,5.55
2022-11-10T06:20:30.717Z,5.82
2022-11-10T06:23:16.031Z,6.63
2022-11-10T06:26:01.025Z,5.63
2022-11-10T06:28:46.473Z,6.40
2022-11-10T06:31:31.956Z,6.45
2022-11-10T06:34:17.427Z,6.80
2022-11-10T06:37:02.903Z,6.75
2022-11-10T06:39:48.280Z,6.35
2022-11-10T06:42:34.072Z,6.00
2022-11-10T06:45:19.344Z,6.55
2022-11-10T06:48:07.803Z,5.82
2022-11-10T06:50:53.206Z,5.82
2022-11-10T06:53:38.382Z,6.28
2022-11-10T06:56:23.775Z,6.05
2022-11-10T06:59:09.280Z,6.32
2022-11-10T07:01:54.821Z,5.75
2022-11-10T07:04:40.221Z,5.82
2022-11-10T07:07:25.403Z,5.97
2022-11-10T07:10:10.875Z,6.53
2022-11-10T07:12:57.533Z,5.82
2022-11-10T07:15:42.813Z,6.30
2022-11-10T07:18:27.887Z,6.97
2022-11-10T07:21:13.139Z,5.75
2022-11-10T07:23:58.515Z,6.00
2022-11-10T07:26:43.709Z,6.53
2022-11-10T07:29:28.830Z,6.43
2022-11-10T07:32:14.955Z,6.00
2022-11-10T07:35:00.144Z,6.13
2022-11-10T07:37:45.528Z,5.97
2022-11-10T07:40:30.957Z,9.07
2022-11-10T07:43:16.180Z,11.82
2022-11-10T07:46:01.781Z,12.10
2022-11-10T07:48:47.543Z,9.73
2022-11-10T07:51:33.849Z,34.25
2022-11-10T07:54:21.927Z,23.90
2022-11-10T07:57:07.336Z,24.40
2022-11-10T07:59:55.474Z,18.20
2022-11-10T08:02:43.361Z,27.85
2022-11-10T08:05:28.476Z,15.65
2022-11-10T08:08:13.691Z,9.15
2022-11-10T08:10:58.964Z,13.50
2022-11-10T08:13:44.047Z,14.43
2022-11-10T08:16:29.577Z,13.45
2022-11-10T08:19:15.071Z,13.65
2022-11-10T08:22:00.188Z,12.40
2022-11-10T08:24:45.517Z,12.25
2022-11-10T08:27:30.544Z,12.27
2022-11-10T08:30:16.140Z,12.40
2022-11-10T08:33:01.830Z,12.02
2022-11-10T08:35:53.277Z,12.63
2022-11-10T08:38:38.752Z,11.02
2022-11-10T08:41:23.916Z,10.73
2022-11-10T08:44:11.178Z,11.48
2022-11-10T08:46:56.668Z,11.93
2022-11-10T08:49:41.870Z,12.35
2022-11-10T08:52:27.315Z,11.55
2022-11-10T08:55:12.456Z,12.52
2022-11-10T08:57:58.630Z,13.80
2022-11-10T09:00:44.420Z,14.18
2022-11-10T09:03:29.756Z,13.85
2022-11-10T09:06:15.017Z,12.40
2022-11-10T09:09:00.015Z,17.70
2022-11-10T09:11:45.389Z,15.73
2022-11-10T09:14:30.727Z,17.92
2022-11-10T09:17:16.021Z,16.52
2022-11-10T09:20:01.985Z,12.15
2022-11-10T09:22:47.387Z,12.45
2022-11-10T09:25:32.660Z,11.82
2022-11-10T09:28:18.195Z,11.65
2022-11-10T09:31:03.716Z,11.30
2022-11-10T09:33:49.346Z,9.70
2022-11-10T09:36:34.571Z,9.02
2022-11-10T09:39:19.631Z,9.07
2022-11-10T09:42:06.489Z,9.15
2022-11-10T09:44:54.665Z,9.38
2022-11-10T09:48:00.097Z,9.45
2022-11-10T09:50:48.280Z,9.57
2022-11-10T09:53:42.244Z,8.77
2022-11-10T09:56:36.644Z,9.38
2022-11-10T09:59:29.444Z,8.80
2022-11-10T10:02:28.383Z,8.05
2022-11-10T10:05:32.401Z,8.13
2022-11-10T10:08:17.503Z,9.45
2022-11-10T10:11:08.644Z,9.20
2022-11-10T10:13:56.605Z,10.23
2022-11-10T10:16:57.120Z,10.25
2022-11-10T10:20:05.921Z,9.43
2022-11-10T10:22:51.543Z,9.68
2022-11-10T10:25:38.814Z,8.50
2022-11-10T10:28:30.536Z,8.00
2022-11-10T10:31:19.229Z,8.07
2022-11-10T10:34:05.181Z,8.20
2022-11-10T10:36:50.783Z,7.00
2022-11-10T10:39:44.055Z,8.25
2022-11-10T10:42:31.652Z,7.53
2022-11-10T10:45:22.906Z,7.18
2022-11-10T10:48:25.131Z,7.70
2022-11-10T10:51:27.062Z,6.88
2022-11-10T10:54:23.054Z,6.65
2022-11-10T10:57:20.617Z,7.03
2022-11-10T11:00:19.895Z,6.72
2022-11-10T11:03:07.169Z,6.93
2022-11-10T11:06:02.479Z,6.97
2022-11-10T11:08:59.381Z,7.05
2022-11-10T11:11:46.385Z,7.15
2022-11-10T11:14:32.169Z,7.13
2022-11-10T11:17:21.742Z,7.57
2022-11-10T11:20:13.303Z,7.45
2022-11-10T11:23:07.724Z,8.20
2022-11-10T11:25:54.745Z,7.47
2022-11-10T11:28:58.274Z,7.47
2022-11-10T11:31:56.110Z,6.45
2022-11-10T11:35:02.350Z,6.78
2022-11-10T11:37:47.761Z,6.55
2022-11-10T11:40:45.269Z,6.82
2022-11-10T11:43:36.422Z,6.32
2022-11-10T11:46:49.597Z,7.32
2022-11-10T11:49:34.999Z,5.85
2022-11-10T11:52:26.140Z,6.55
2022-11-10T11:55:18.535Z,5.82
2022-11-10T11:58:22.994Z,6.63
2022-11-10T12:01:27.165Z,6.53
2022-11-10T12:04:12.401Z,6.18
2022-11-10T12:07:13.303Z,5.90
2022-11-10T12:10:04.264Z,5.32
2022-11-10T12:13:00.253Z,5.70
2022-11-10T12:15:48.500Z,6.20
2022-11-10T12:18:37.831Z,6.05
2022-11-10T12:21:29.232Z,5.68
2022-11-10T12:24:14.523Z,5.47
2022-11-10T12:27:09.119Z,4.93
2022-11-10T12:30:01.394Z,5.80
2022-11-10T12:33:07.127Z,5.60
2022-11-10T12:35:53.790Z,5.72
2022-11-10T12:38:59.594Z,5.25
2022-11-10T12:41:58.108Z,5.03
2022-11-10T12:44:54.189Z,6.25
2022-11-10T12:47:42.963Z,5.88
2022-11-10T12:50:32.426Z,5.10
2022-11-10T12:53:20.374Z,5.38
2022-11-10T12:56:13.846Z,5.95
2022-11-10T12:59:17.808Z,5.07
2022-11-10T13:02:16.838Z,4.82
2022-11-10T13:05:14.056Z,4.70
2022-11-10T13:08:14.216Z,5.43
2022-11-10T13:11:02.162Z,4.60
2022-11-10T13:14:07.720Z,4.85
2022-11-10T13:16:54.374Z,4.60
2022-11-10T13:19:47.509Z,4.95
2022-11-10T13:22:34.475Z,4.57
2022-11-10T13:25:38.264Z,5.32
2022-11-10T13:28:41.851Z,5.47
2022-11-10T13:31:26.757Z,5.05
2022-11-10T13:34:26.398Z,5.25
2022-11-10T13:37:29.635Z,5.32
2022-11-10T13:40:21.065Z,5.05
2022-11-10T13:43:19.595Z,4.50
2022-11-10T13:46:05.487Z,4.78
2022-11-10T13:48:53.530Z,5.82
2022-11-10T13:51:43.585Z,6.13
2022-11-10T13:54:34.626Z,6.00
2022-11-10T13:57:38.515Z,5.22
2022-11-10T14:00:26.165Z,5.10
2022-11-10T14:03:31.552Z,4.32
2022-11-10T14:06:36.043Z,5.38
2022-11-10T14:09:29.018Z,4.18
2022-11-10T14:12:28.473Z,5.13
2022-11-10T14:15:16.052Z,5.05
2022-11-10T14:18:01.299Z,5.22
2022-11-10T14:20:47.739Z,6.75
2022-11-10T14:23:42.260Z,4.10
2022-11-10T14:26:39.272Z,3.95
2022-11-10T14:29:28.106Z,3.45
2022-11-10T14:32:19.020Z,3.83
2022-11-10T14:35:04.665Z,3.70
2022-11-10T14:37:49.867Z,3.75
2022-11-10T14:40:40.918Z,3.47
2022-11-10T14:43:26.494Z,3.85
2022-11-10T14:46:13.517Z,4.15
2022-11-10T14:48:59.796Z,3.40
2022-11-10T14:51:45.647Z,3.72
2022-11-10T14:54:30.757Z,3.63
2022-11-10T14:57:17.655Z,3.35
2022-11-10T15:00:06.124Z,3.50
2022-11-10T15:02:52.532Z,3.10
2022-11-10T15:05:38.671Z,2.80
2022-11-10T15:08:24.624Z,3.55
2022-11-10T15:11:31.929Z,3.28
2022-11-10T15:14:39.505Z,2.88
2022-11-10T15:17:43.537Z,2.65
2022-11-10T15:20:28.709Z,2.97
2022-11-10T15:23:22.545Z,2.70
2022-11-10T15:26:19.069Z,3.08
2022-11-10T15:29:04.458Z,2.90
2022-11-10T15:31:50.502Z,2.50
2022-11-10T15:34:42.787Z,2.70
2022-11-10T15:37:31.153Z,3.03
2022-11-10T15:40:29.415Z,2.35
2022-11-10T15:43:22.237Z,2.75
2022-11-10T15:46:18.232Z,2.40
2022-11-10T15:49:04.006Z,2.90
2022-11-10T15:51:50.085Z,2.40
2022-11-10T15:54:35.917Z,2.55
2022-11-10T15:57:21.028Z,2.70
2022-11-10T16:00:06.883Z,2.13
2022-11-10T16:02:52.180Z,2.35
2022-11-10T16:05:40.188Z,2.55
2022-11-10T16:08:26.634Z,2.53
2022-11-10T16:11:17.513Z,2.53
2022-11-10T16:14:03.684Z,2.67
2022-11-10T16:16:49.071Z,2.95
2022-11-10T16:19:34.202Z,2.60
2022-11-10T16:22:19.592Z,2.53
2022-11-10T16:25:05.260Z,2.78
2022-11-10T16:27:50.447Z,2.35
2022-11-10T16:30:35.806Z,2.60
2022-11-10T16:33:23.004Z,2.50
2022-11-10T16:36:27.902Z,2.50
2022-11-10T16:39:14.294Z,2.65
2022-11-10T16:41:59.406Z,2.60
2022-11-10T16:44:44.441Z,2.50
2022-11-10T16:47:31.073Z,2.47
2022-11-10T16:50:35.859Z,2.30
2022-11-10T16:53:25.475Z,2.80
2022-11-10T16:56:17.266Z,2.15
2022-11-10T16:59:04.316Z,2.15
2022-11-10T17:01:49.695Z,2.50
2022-11-10T17:04:35.502Z,2.58
2022-11-10T17:07:24.266Z,2.00
2022-11-10T17:10:16.937Z,2.10
2022-11-10T17:13:02.285Z,2.30
2022-11-10T17:15:47.857Z,2.13
2022-11-10T17:18:33.880Z,1.92
2022-11-10T17:21:20.192Z,2.00
2022-11-10T17:24:05.450Z,1.73
2022-11-10T17:26:50.808Z,2.03
2022-11-10T17:29:35.998Z,2.25
2022-11-10T17:32:37.104Z,2.40
2022-11-10T17:35:26.857Z,2.10
2022-11-10T17:38:12.856Z,2.10
2022-11-10T17:40:58.438Z,2.38
2022-11-10T17:43:45.911Z,2.22
2022-11-10T17:46:31.556Z,2.25
2022-11-10T17:49:16.967Z,2.70
2022-11-10T17:52:02.373Z,2.33
2022-11-10T17:54:47.737Z,2.08
2022-11-10T17:57:32.909Z,2.67
2022-11-10T18:00:18.592Z,2.25
2022-11-10T18:03:08.520Z,2.35
2022-11-10T18:05:53.951Z,2.60
2022-11-10T18:08:39.200Z,2.33
2022-11-10T18:11:24.584Z,2.40
2022-11-10T18:14:11.350Z,2.75
2022-11-10T18:16:56.817Z,2.17
2022-11-10T18:19:42.238Z,2.58
2022-11-10T18:22:27.595Z,3.35
2022-11-10T18:25:12.985Z,2.67
2022-11-10T18:27:58.096Z,2.55
2022-11-10T18:30:43.795Z,2.63
2022-11-10T18:33:29.271Z,3.08
2022-11-10T18:36:14.457Z,3.08
2022-11-10T18:38:59.570Z,3.38
2022-11-10T18:41:50.571Z,3.15
2022-11-10T18:44:37.012Z,3.10
2022-11-10T18:47:22.331Z,2.50
2022-11-10T18:50:07.849Z,2.63
2022-11-10T18:52:53.171Z,3.50
2022-11-10T18:55:41.801Z,3.00
2022-11-10T18:58:30.494Z,2.80
2022-11-10T19:01:16.289Z,2.80
2022-11-10T19:04:01.753Z,2.60
2022-11-10T19:06:47.211Z,3.17
2022-11-10T19:09:33.225Z,2.80
2022-11-10T19:12:22.616Z,2.25
2022-11-10T19:15:10.593Z,2.55
2022-11-10T19:17:55.788Z,3.13
2022-11-10T19:20:41.132Z,2.88
2022-11-10T19:23:26.908Z,2.42
2022-11-10T19:26:21.915Z,2.75
2022-11-10T19:29:08.206Z,2.80
2022-11-10T19:31:53.770Z,2.42
2022-11-10T19:34:39.266Z,2.40
2022-11-10T19:37:24.630Z,2.50
2022-11-10T19:40:10.115Z,2.67
2022-11-10T19:42:55.749Z,1.92
2022-11-10T19:45:42.316Z,2.63
2022-11-10T19:48:28.083Z,2.42
2022-11-10T19:51:14.380Z,2.42
2022-11-10T19:54:03.405Z,1.73
2022-11-10T19:56:48.875Z,2.38
2022-11-10T19:59:34.120Z,2.50
2022-11-10T20:02:19.635Z,2.50
2022-11-10T20:05:15.930Z,3.45
2022-11-10T20:08:13.337Z,2.72
2022-11-10T20:11:02.820Z,3.38
2022-11-10T20:13:53.338Z,3.22
2022-11-10T20:16:40.021Z,3.47
2022-11-10T20:19:25.620Z,3.40
2022-11-10T20:22:12.715Z,4.07
2022-11-10T20:24:58.440Z,3.78
2022-11-10T20:27:43.978Z,4.40
2022-11-10T20:30:29.625Z,3.88
2022-11-10T20:33:17.235Z,4.20
2022-11-10T20:36:14.783Z,6.07
2022-11-10T20:39:02.840Z,6.30
2022-11-10T20:41:48.243Z,6.95
2022-11-10T20:44:33.810Z,8.73
2022-11-10T20:47:19.292Z,8.70
2022-11-10T20:50:06.273Z,8.35
2022-11-10T20:52:53.232Z,11.68
2022-11-10T20:55:53.238Z,16.30
2022-11-10T20:58:39.963Z,11.98
2022-11-10T21:01:25.642Z,10.02
2022-11-10T21:04:11.130Z,9.60
2022-11-10T21:06:56.321Z,10.48
2022-11-10T21:09:41.540Z,9.85
2022-11-10T21:12:46.731Z,11.88
2022-11-10T21:15:32.283Z,15.23
2022-11-10T21:18:17.554Z,11.02
2022-11-10T21:21:04.171Z,8.55
2022-11-10T21:23:57.544Z,7.32
2022-11-10T21:26:43.296Z,6.03
2022-11-10T21:29:28.708Z,7.40
2022-11-10T21:32:13.817Z,8.43
2022-11-10T21:34:58.987Z,7.20
2022-11-10T21:37:44.304Z,7.40
2022-11-10T21:40:29.545Z,7.18
2022-11-10T21:43:15.094Z,7.95
2022-11-10T21:46:06.254Z,7.90
2022-11-10T21:48:51.809Z,9.00
2022-11-10T21:51:37.517Z,7.63
2022-11-10T21:54:22.825Z,8.50
2022-11-10T21:57:08.225Z,8.23
2022-11-10T21:59:53.426Z,9.15
2022-11-10T22:02:38.597Z,9.80
2022-11-10T22:05:23.791Z,10.00
2022-11-10T22:08:08.987Z,11.63
2022-11-10T22:11:12.789Z,11.27
2022-11-10T22:14:15.954Z,10.98
2022-11-10T22:17:19.437Z,10.63
2022-11-10T22:20:04.880Z,11.05
2022-11-10T22:22:50.331Z,11.20
2022-11-10T22:25:35.432Z,12.40
2022-11-10T22:28:20.966Z,13.02
2022-11-10T22:31:06.986Z,11.85
2022-11-10T22:33:52.196Z,12.93
2022-11-10T22:36:37.500Z,11.57
2022-11-10T22:39:22.927Z,10.90
2022-11-10T22:42:30.188Z,10.00
2022-11-10T22:45:15.689Z,8.43
2022-11-10T22:48:19.570Z,5.05
2022-11-10T22:51:05.026Z,4.68
2022-11-10T22:53:50.243Z,4.60
2022-11-10T22:56:35.468Z,3.80
2022-11-10T22:59:20.926Z,3.45
2022-11-10T23:02:06.023Z,4.18
2022-11-10T23:04:51.408Z,4.57
2022-11-10T23:07:36.914Z,3.97
2022-11-10T23:10:22.099Z,4.53
2022-11-10T23:13:07.157Z,4.57
2022-11-10T23:15:54.268Z,4.25
2022-11-10T23:18:40.276Z,3.92
2022-11-10T23:21:27.341Z,5.20
2022-11-10T23:24:13.563Z,5.93
2022-11-10T23:26:58.654Z,6.43
2022-11-10T23:29:43.814Z,6.95
2022-11-10T23:32:29.043Z,7.82
2022-11-10T23:35:14.339Z,7.50
2022-11-10T23:37:59.657Z,7.45
2022-11-10T23:40:45.058Z,9.18
2022-11-10T23:43:30.645Z,9.05
2022-11-10T23:46:15.788Z,9.50
2022-11-10T23:49:00.966Z,11.93
2022-11-10T23:51:45.989Z,9.48
2022-11-10T23:54:31.220Z,9.90
2022-11-10T23:57:16.351Z,9.35
